createdAt,value
2018-10-09T00:02:28.405Z,24.30
2018-10-09T00:04:57.698Z,24.27
2018-10-09T00:07:27.062Z,26.53
2018-10-09T00:09:56.342Z,25.27
2018-10-09T00:12:25.807Z,23.60
2018-10-09T00:14:55.210Z,30.00
2018-10-09T00:17:24.715Z,32.43
2018-10-09T00:19:54.116Z,28.23
2018-10-09T00:22:23.390Z,33.00
2018-10-09T00:24:53.124Z,43.73
2018-10-09T00:27:22.629Z,75.27
2018-10-09T00:29:51.927Z,64.83
2018-10-09T00:32:21.534Z,200.47
2018-10-09T00:34:50.832Z,90.60
2018-10-09T00:37:20.339Z,28.40
2018-10-09T00:39:49.590Z,25.47
2018-10-09T00:42:19.011Z,25.60
2018-10-09T00:44:48.307Z,180.97
2018-10-09T00:47:17.945Z,63.00
2018-10-09T00:49:47.266Z,27.00
2018-10-09T00:52:16.699Z,33.47
2018-10-09T00:54:46.151Z,34.27
2018-10-09T00:57:15.473Z,65.73
2018-10-09T00:59:44.852Z,45.97
2018-10-09T01:02:14.144Z,38.00
2018-10-09T01:04:43.451Z,35.23
2018-10-09T01:07:12.788Z,32.13
2018-10-09T01:09:42.018Z,31.13
2018-10-09T01:12:11.367Z,30.70
2018-10-09T01:14:40.618Z,28.57
2018-10-09T01:17:09.994Z,60.90
2018-10-09T01:19:39.452Z,88.57
2018-10-09T01:22:09.184Z,152.83
2018-10-09T01:24:38.973Z,160.07
2018-10-09T01:27:08.787Z,47.73
2018-10-09T01:29:38.110Z,43.87
2018-10-09T01:32:07.469Z,49.50
2018-10-09T01:34:36.780Z,51.67
2018-10-09T01:37:11.539Z,35.97
2018-10-09T01:39:40.817Z,38.83
2018-10-09T01:42:10.623Z,51.63
2018-10-09T01:44:40.024Z,33.77
2018-10-09T01:47:09.383Z,32.40
2018-10-09T01:49:38.624Z,35.47
2018-10-09T01:52:08.090Z,61.20
2018-10-09T01:54:37.520Z,63.47
2018-10-09T01:57:06.885Z,57.47
2018-10-09T01:59:36.333Z,58.87
2018-10-09T02:02:05.810Z,42.80
2018-10-09T02:04:35.444Z,56.20
2018-10-09T02:07:04.817Z,56.57
2018-10-09T02:09:34.557Z,33.43
2018-10-09T02:12:04.164Z,38.93
2018-10-09T02:14:33.852Z,67.00
2018-10-09T02:17:03.229Z,62.73
2018-10-09T02:19:32.545Z,84.77
2018-10-09T02:22:01.871Z,91.97
2018-10-09T02:24:31.431Z,67.33
2018-10-09T02:27:00.726Z,38.87
2018-10-09T02:29:30.012Z,68.43
2018-10-09T02:31:59.304Z,60.80
2018-10-09T02:34:28.587Z,71.47
2018-10-09T02:36:57.926Z,64.70
2018-10-09T02:39:27.199Z,60.90
2018-10-09T02:41:56.636Z,82.03
2018-10-09T02:44:27.103Z,75.13
2018-10-09T02:46:56.609Z,69.77
2018-10-09T02:49:26.007Z,79.50
2018-10-09T02:51:55.598Z,39.00
2018-10-09T02:54:25.015Z,89.53
2018-10-09T02:56:54.271Z,38.27
2018-10-09T02:59:23.670Z,82.40
2018-10-09T03:01:53.118Z,127.20
2018-10-09T03:04:23.425Z,116.20
2018-10-09T03:06:52.726Z,65.93
2018-10-09T03:09:22.144Z,64.73
2018-10-09T03:11:51.437Z,78.23
2018-10-09T03:14:20.704Z,119.57
2018-10-09T03:16:50.012Z,88.37
2018-10-09T03:19:19.271Z,48.50
2018-10-09T03:21:48.638Z,34.87
2018-10-09T03:24:17.875Z,39.87
2018-10-09T03:26:47.341Z,37.87
2018-10-09T03:29:16.591Z,34.63
2018-10-09T03:31:46.127Z,44.13
2018-10-09T03:34:15.615Z,53.83
2018-10-09T03:36:45.106Z,68.67
2018-10-09T03:39:14.621Z,29.80
2018-10-09T03:41:44.266Z,34.57
2018-10-09T03:44:13.498Z,38.77
2018-10-09T03:46:42.964Z,70.83
2018-10-09T03:49:13.460Z,91.37
2018-10-09T03:51:43.101Z,75.43
2018-10-09T03:54:12.469Z,66.60
2018-10-09T03:56:41.807Z,138.53
2018-10-09T03:59:11.202Z,113.47
2018-10-09T04:01:40.678Z,136.23
2018-10-09T04:04:10.179Z,119.07
2018-10-09T04:06:39.490Z,303.27
2018-10-09T04:09:10.865Z,218.70
2018-10-09T04:11:40.259Z,88.70
2018-10-09T04:14:09.762Z,231.30
2018-10-09T04:16:39.082Z,133.73
2018-10-09T04:19:08.623Z,223.70
2018-10-09T04:21:38.002Z,295.37
2018-10-09T04:24:07.304Z,138.90
2018-10-09T04:26:36.619Z,105.43
2018-10-09T04:29:06.276Z,166.30
2018-10-09T04:31:35.528Z,149.27
2018-10-09T04:34:05.389Z,171.63
2018-10-09T04:36:34.789Z,142.50
2018-10-09T04:39:05.365Z,94.73
2018-10-09T04:41:34.821Z,143.80
2018-10-09T04:44:04.126Z,109.70
2018-10-09T04:46:33.725Z,102.73
2018-10-09T04:49:03.186Z,154.23
2018-10-09T04:51:32.713Z,89.17
2018-10-09T04:54:02.343Z,84.90
2018-10-09T04:56:31.747Z,66.00
2018-10-09T04:59:01.128Z,102.10
2018-10-09T05:01:30.615Z,71.13
2018-10-09T05:04:00.055Z,124.60
2018-10-09T05:06:29.354Z,107.13
2018-10-09T05:08:58.678Z,114.90
2018-10-09T05:11:27.944Z,36.57
2018-10-09T05:13:57.349Z,71.23
2018-10-09T05:16:26.639Z,145.57
2018-10-09T05:18:56.154Z,31.83
2018-10-09T05:21:25.557Z,38.90
2018-10-09T05:23:54.917Z,99.20
2018-10-09T05:26:24.361Z,34.30
2018-10-09T05:28:53.968Z,187.97
2018-10-09T05:31:23.478Z,45.13
2018-10-09T05:33:53.045Z,70.33
2018-10-09T05:36:22.311Z,43.57
2018-10-09T05:38:52.803Z,33.63
2018-10-09T05:41:22.133Z,29.23
2018-10-09T05:43:51.471Z,23.23
2018-10-09T05:46:20.742Z,20.73
2018-10-09T05:48:50.030Z,34.93
2018-10-09T05:51:19.506Z,38.87
2018-10-09T05:53:48.834Z,38.90
2018-10-09T05:56:18.182Z,44.97
2018-10-09T05:58:47.414Z,45.53
2018-10-09T06:01:16.770Z,44.70
2018-10-09T06:03:46.066Z,34.67
2018-10-09T06:06:15.407Z,42.30
2018-10-09T06:08:44.813Z,28.27
2018-10-09T06:11:14.256Z,40.13
2018-10-09T06:13:43.796Z,36.33
2018-10-09T06:16:13.217Z,38.70
2018-10-09T06:18:42.595Z,62.20
2018-10-09T06:21:11.920Z,43.77
2018-10-09T06:23:41.330Z,35.23
2018-10-09T06:26:10.663Z,35.10
2018-10-09T06:28:39.960Z,57.37
2018-10-09T06:31:09.422Z,38.10
2018-10-09T06:33:38.817Z,54.00
2018-10-09T06:36:08.110Z,45.30
2018-10-09T06:38:37.530Z,40.97
2018-10-09T06:41:07.032Z,45.23
2018-10-09T06:43:36.313Z,63.70
2018-10-09T06:46:05.731Z,54.00
2018-10-09T06:48:34.970Z,45.50
2018-10-09T06:51:04.307Z,66.63
2018-10-09T06:53:33.604Z,57.90
2018-10-09T06:56:03.236Z,43.33
2018-10-09T06:58:32.494Z,43.80
2018-10-09T07:01:01.829Z,38.17
2018-10-09T07:03:31.239Z,32.43
2018-10-09T07:06:00.481Z,45.40
2018-10-09T07:08:30.041Z,32.73
2018-10-09T07:10:59.755Z,32.67
2018-10-09T07:13:29.663Z,30.30
2018-10-09T07:15:58.927Z,26.33
2018-10-09T07:18:28.693Z,39.23
2018-10-09T07:20:58.307Z,46.20
2018-10-09T07:23:27.839Z,27.93
2018-10-09T07:25:58.618Z,25.33
2018-10-09T07:28:28.021Z,26.07
2018-10-09T07:30:57.523Z,46.87
2018-10-09T07:33:27.082Z,22.70
2018-10-09T07:35:56.789Z,24.37
2018-10-09T07:38:26.309Z,28.97
2018-10-09T07:40:55.643Z,23.17
2018-10-09T07:43:24.916Z,20.67
2018-10-09T07:45:54.432Z,17.00
2018-10-09T07:48:23.726Z,17.07
2018-10-09T07:50:53.072Z,18.07
2018-10-09T07:53:22.316Z,19.00
2018-10-09T07:55:51.703Z,20.33
2018-10-09T07:58:21.352Z,19.30
2018-10-09T08:00:50.862Z,23.10
2018-10-09T08:03:20.409Z,26.80
2018-10-09T08:05:49.964Z,24.77
2018-10-09T08:08:19.478Z,25.53
2018-10-09T08:10:50.014Z,25.70
2018-10-09T08:13:19.902Z,21.13
2018-10-09T08:15:49.250Z,20.37
2018-10-09T08:18:18.819Z,35.53
2018-10-09T08:20:48.226Z,29.73
2018-10-09T08:23:17.610Z,21.63
2018-10-09T08:25:46.883Z,22.50
2018-10-09T08:28:16.325Z,21.57
2018-10-09T08:30:45.794Z,22.43
2018-10-09T08:33:15.235Z,20.97
2018-10-09T08:35:44.734Z,22.27
2018-10-09T08:38:14.191Z,22.57
2018-10-09T08:40:43.610Z,29.07
2018-10-09T08:43:13.556Z,23.50
2018-10-09T08:45:42.943Z,22.47
2018-10-09T08:48:12.429Z,16.50
2018-10-09T08:50:42.067Z,18.23
2018-10-09T08:53:11.537Z,18.57
2018-10-09T08:55:41.177Z,15.53
2018-10-09T08:58:10.682Z,15.03
2018-10-09T09:00:40.136Z,13.97
2018-10-09T09:03:09.652Z,14.93
2018-10-09T09:05:39.117Z,13.07
2018-10-09T09:08:08.686Z,12.83
2018-10-09T09:10:38.068Z,13.37
2018-10-09T09:13:07.395Z,14.20
2018-10-09T09:15:36.768Z,17.97
2018-10-09T09:18:06.511Z,13.53
2018-10-09T09:20:36.117Z,14.17
2018-10-09T09:23:05.632Z,13.97
2018-10-09T09:25:34.968Z,13.87
2018-10-09T09:28:04.528Z,14.93
2018-10-09T09:30:34.033Z,14.10
2018-10-09T09:33:03.496Z,14.30
2018-10-09T09:35:32.938Z,14.30
2018-10-09T09:38:02.283Z,14.07
2018-10-09T09:40:31.743Z,13.03
2018-10-09T09:43:01.212Z,14.30
2018-10-09T09:45:30.575Z,13.40
2018-10-09T09:47:59.870Z,14.10
2018-10-09T09:50:29.354Z,15.07
2018-10-09T09:52:58.799Z,14.20
2018-10-09T09:55:28.390Z,15.80
2018-10-09T09:57:58.051Z,14.30
2018-10-09T10:00:32.587Z,14.10
2018-10-09T10:03:02.096Z,13.20
2018-10-09T10:05:31.701Z,14.97
2018-10-09T10:08:01.717Z,13.87
2018-10-09T10:10:31.222Z,14.20
2018-10-09T10:13:00.538Z,15.23
2018-10-09T10:15:29.861Z,14.57
2018-10-09T10:17:59.223Z,15.17
2018-10-09T10:20:28.623Z,14.20
2018-10-09T10:22:58.127Z,15.03
2018-10-09T10:25:27.630Z,14.83
2018-10-09T10:27:56.932Z,14.10
2018-10-09T10:30:26.222Z,15.30
2018-10-09T10:32:55.603Z,15.33
2018-10-09T10:35:24.883Z,15.03
2018-10-09T10:37:54.418Z,15.27
2018-10-09T10:40:23.841Z,14.43
2018-10-09T10:42:53.207Z,15.20
2018-10-09T10:45:22.464Z,15.13
2018-10-09T10:47:51.837Z,15.40
2018-10-09T10:50:21.239Z,15.33
2018-10-09T10:52:50.644Z,13.83
2018-10-09T10:55:20.251Z,14.77
2018-10-09T10:57:49.751Z,15.77
2018-10-09T11:00:19.256Z,18.47
2018-10-09T11:02:48.666Z,17.07
2018-10-09T11:05:18.279Z,15.30
2018-10-09T11:07:47.577Z,16.03
2018-10-09T11:10:16.942Z,15.37
2018-10-09T11:12:46.263Z,17.10
2018-10-09T11:15:15.514Z,15.13
2018-10-09T11:17:44.824Z,16.75
2018-10-09T11:20:14.135Z,15.13
2018-10-09T11:22:43.451Z,14.73
2018-10-09T11:25:12.971Z,15.63
2018-10-09T11:27:42.470Z,15.18
2018-10-09T11:30:11.743Z,16.27
2018-10-09T11:32:41.094Z,16.67
2018-10-09T11:35:10.372Z,17.02
2018-10-09T11:37:40.963Z,17.10
2018-10-09T11:40:10.264Z,17.87
2018-10-09T11:42:39.789Z,18.90
2018-10-09T11:45:09.308Z,19.35
2018-10-09T11:47:38.612Z,21.12
2018-10-09T11:50:08.814Z,20.55
2018-10-09T11:52:38.139Z,20.25
2018-10-09T11:55:07.402Z,21.23
2018-10-09T11:57:36.755Z,21.70
2018-10-09T12:00:06.443Z,23.40
2018-10-09T12:02:35.731Z,23.47
2018-10-09T12:05:05.099Z,22.40
2018-10-09T12:07:34.304Z,21.15
2018-10-09T12:10:03.698Z,21.97
2018-10-09T12:12:33.343Z,23.80
2018-10-09T12:15:02.627Z,23.07
2018-10-09T12:17:32.148Z,22.22
2018-10-09T12:20:01.653Z,22.67
2018-10-09T12:22:30.932Z,21.45
2018-10-09T12:25:00.452Z,20.17
2018-10-09T12:27:29.921Z,21.17
2018-10-09T12:29:59.361Z,20.68
2018-10-09T12:32:28.755Z,21.25
2018-10-09T12:34:58.075Z,19.17
2018-10-09T12:37:27.360Z,20.55
2018-10-09T12:39:56.691Z,20.45
2018-10-09T12:42:26.062Z,20.10
2018-10-09T12:44:55.360Z,20.20
2018-10-09T12:47:24.665Z,18.98
2018-10-09T12:49:54.902Z,20.32
2018-10-09T12:52:24.287Z,19.55
2018-10-09T12:54:53.635Z,19.27
2018-10-09T12:57:22.903Z,20.02
2018-10-09T12:59:52.418Z,19.57
2018-10-09T13:02:22.098Z,21.52
2018-10-09T13:04:51.447Z,20.75
2018-10-09T13:07:20.760Z,20.40
2018-10-09T13:09:50.076Z,22.25
2018-10-09T13:12:19.613Z,18.57
2018-10-09T13:14:48.963Z,19.32
2018-10-09T13:17:18.566Z,19.55
2018-10-09T13:19:47.746Z,19.50
2018-10-09T13:22:17.257Z,20.17
2018-10-09T13:24:46.330Z,19.07
2018-10-09T13:27:15.703Z,19.32
2018-10-09T13:29:45.108Z,18.90
2018-10-09T13:32:14.457Z,19.45
2018-10-09T13:34:44.017Z,19.62
2018-10-09T13:37:13.419Z,18.70
2018-10-09T13:39:42.919Z,18.15
2018-10-09T13:42:12.432Z,19.23
2018-10-09T13:44:41.768Z,18.35
2018-10-09T13:47:11.109Z,19.23
2018-10-09T13:49:40.387Z,18.60
2018-10-09T13:52:09.685Z,18.02
2018-10-09T13:54:38.994Z,19.55
2018-10-09T13:57:08.389Z,18.45
2018-10-09T13:59:37.932Z,19.00
2018-10-09T14:02:07.250Z,18.12
2018-10-09T14:04:36.837Z,18.23
2018-10-09T14:07:06.075Z,17.65
2018-10-09T14:09:35.455Z,17.05
2018-10-09T14:12:04.838Z,18.75
2018-10-09T14:14:34.650Z,18.90
2018-10-09T14:17:03.906Z,19.05
2018-10-09T14:19:33.272Z,18.90
2018-10-09T14:22:02.483Z,19.45
2018-10-09T14:24:31.811Z,19.52
2018-10-09T14:27:01.266Z,19.62
2018-10-09T14:29:30.653Z,18.92
2018-10-09T14:31:59.975Z,18.45
2018-10-09T14:34:29.354Z,19.17
2018-10-09T14:36:58.612Z,19.10
2018-10-09T14:39:28.260Z,17.90
2018-10-09T14:41:57.670Z,18.85
2018-10-09T14:44:26.919Z,20.15
2018-10-09T14:46:56.430Z,18.23
2018-10-09T14:49:25.930Z,20.15
2018-10-09T14:51:55.688Z,19.30
2018-10-09T14:54:24.973Z,18.60
2018-10-09T14:56:54.203Z,18.00
2018-10-09T14:59:23.583Z,17.50
2018-10-09T15:01:52.979Z,18.20
2018-10-09T15:04:22.320Z,17.90
2018-10-09T15:06:51.920Z,18.65
2018-10-09T15:09:22.583Z,20.12
2018-10-09T15:11:52.128Z,20.85
2018-10-09T15:14:21.732Z,19.60
2018-10-09T15:16:51.272Z,22.37
2018-10-09T15:19:20.944Z,20.68
2018-10-09T15:21:50.340Z,21.07
2018-10-09T15:24:19.748Z,20.30
2018-10-09T15:26:50.384Z,21.15
2018-10-09T15:29:19.985Z,17.87
2018-10-09T15:31:49.490Z,17.95
2018-10-09T15:34:18.995Z,19.48
2018-10-09T15:36:48.619Z,18.48
2018-10-09T15:39:18.209Z,18.52
2018-10-09T15:41:47.815Z,18.98
2018-10-09T15:44:17.421Z,17.65
2018-10-09T15:46:46.791Z,17.70
2018-10-09T15:49:16.336Z,19.20
2018-10-09T15:51:45.580Z,17.95
2018-10-09T15:54:15.235Z,19.52
2018-10-09T15:56:44.635Z,18.05
2018-10-09T15:59:14.042Z,22.27
2018-10-09T16:01:43.544Z,19.60
2018-10-09T16:04:13.095Z,21.17
2018-10-09T16:06:42.552Z,19.12
2018-10-09T16:09:12.465Z,20.70
2018-10-09T16:11:41.810Z,24.50
2018-10-09T16:14:11.577Z,20.55
2018-10-09T16:16:40.872Z,20.57
2018-10-09T16:19:10.356Z,21.73
2018-10-09T16:21:40.358Z,20.73
2018-10-09T16:24:10.003Z,19.57
2018-10-09T16:26:46.021Z,22.63
2018-10-09T16:29:15.362Z,21.40
2018-10-09T16:31:44.864Z,21.43
2018-10-09T16:34:14.175Z,20.47
2018-10-09T16:36:43.773Z,24.70
2018-10-09T16:39:14.299Z,24.23
2018-10-09T16:41:43.804Z,23.07
2018-10-09T16:44:13.261Z,19.73
2018-10-09T16:46:44.758Z,21.13
2018-10-09T16:49:14.180Z,24.63
2018-10-09T16:51:43.608Z,21.13
2018-10-09T16:54:13.069Z,22.60
2018-10-09T16:56:42.569Z,26.30
2018-10-09T16:59:11.972Z,23.57
2018-10-09T17:01:41.579Z,25.07
2018-10-09T17:04:11.039Z,25.17
2018-10-09T17:06:48.124Z,26.13
2018-10-09T17:09:17.670Z,22.57
2018-10-09T17:11:47.310Z,24.03
2018-10-09T17:14:16.779Z,24.33
2018-10-09T17:16:46.315Z,24.50
2018-10-09T17:19:15.685Z,23.40
2018-10-09T17:21:45.059Z,22.50
2018-10-09T17:24:18.760Z,23.53
2018-10-09T17:26:48.143Z,22.40
2018-10-09T17:29:17.919Z,25.03
2018-10-09T17:31:47.281Z,26.50
2018-10-09T17:34:16.821Z,28.07
2018-10-09T17:36:46.315Z,31.60
2018-10-09T17:39:15.892Z,30.13
2018-10-09T17:41:45.326Z,32.40
2018-10-09T17:44:14.837Z,34.47
2018-10-09T17:46:44.276Z,33.17
2018-10-09T17:49:14.656Z,31.87
2018-10-09T17:51:43.915Z,31.23
2018-10-09T17:54:13.258Z,29.37
2018-10-09T17:56:42.758Z,34.17
2018-10-09T17:59:12.011Z,33.80
2018-10-09T18:01:41.355Z,33.53
2018-10-09T18:04:10.979Z,29.10
2018-10-09T18:06:40.877Z,33.07
2018-10-09T18:09:11.467Z,33.30
2018-10-09T18:11:41.115Z,30.20
2018-10-09T18:14:11.234Z,30.03
2018-10-09T18:16:40.809Z,29.97
2018-10-09T18:19:10.246Z,28.70
2018-10-09T18:21:39.953Z,30.97
2018-10-09T18:24:09.354Z,27.67
2018-10-09T18:26:38.633Z,27.17
2018-10-09T18:29:08.157Z,27.57
2018-10-09T18:31:37.663Z,24.60
2018-10-09T18:34:07.184Z,25.13
2018-10-09T18:36:37.904Z,25.10
2018-10-09T18:39:12.284Z,24.83
2018-10-09T18:41:42.764Z,26.47
2018-10-09T18:44:12.313Z,23.47
2018-10-09T18:46:42.165Z,27.23
2018-10-09T18:49:13.715Z,22.20
2018-10-09T18:51:43.213Z,23.77
2018-10-09T18:54:12.644Z,23.07
2018-10-09T18:56:42.337Z,21.80
2018-10-09T18:59:11.835Z,23.93
2018-10-09T19:01:41.182Z,24.90
2018-10-09T19:04:11.483Z,23.37
2018-10-09T19:06:45.161Z,27.73
2018-10-09T19:09:14.666Z,22.57
2018-10-09T19:11:45.734Z,22.37
2018-10-09T19:14:16.237Z,22.80
2018-10-09T19:16:46.050Z,26.77
2018-10-09T19:19:15.866Z,24.33
2018-10-09T19:21:45.467Z,30.80
2018-10-09T19:24:15.474Z,27.80
2018-10-09T19:26:45.295Z,23.83
2018-10-09T19:29:15.236Z,25.20
2018-10-09T19:31:45.122Z,29.03
2018-10-09T19:34:15.093Z,27.73
2018-10-09T19:36:44.899Z,28.13
2018-10-09T19:39:14.893Z,26.90
2018-10-09T19:41:44.821Z,27.07
2018-10-09T19:44:14.382Z,25.33
2018-10-09T19:46:43.997Z,25.97
2018-10-09T19:49:13.886Z,24.03
2018-10-09T19:51:43.836Z,26.90
2018-10-09T19:54:13.987Z,25.67
2018-10-09T19:56:43.758Z,26.40
2018-10-09T19:59:14.611Z,26.80
2018-10-09T20:01:44.489Z,26.37
2018-10-09T20:04:14.515Z,25.97
2018-10-09T20:06:45.654Z,25.30
2018-10-09T20:09:15.308Z,25.90
2018-10-09T20:11:45.056Z,26.17
2018-10-09T20:14:15.198Z,26.83
2018-10-09T20:16:44.695Z,23.67
2018-10-09T20:19:14.039Z,23.33
2018-10-09T20:21:43.459Z,27.70
2018-10-09T20:24:12.723Z,24.93
2018-10-09T20:26:42.202Z,26.10
2018-10-09T20:29:11.710Z,26.87
2018-10-09T20:31:41.312Z,29.30
2018-10-09T20:34:11.678Z,27.30
2018-10-09T20:36:41.137Z,30.00
2018-10-09T20:39:10.496Z,30.60
2018-10-09T20:41:39.856Z,30.03
2018-10-09T20:44:09.183Z,28.10
2018-10-09T20:46:38.647Z,26.40
2018-10-09T20:49:08.355Z,28.50
2018-10-09T20:51:37.860Z,26.47
2018-10-09T20:54:07.374Z,24.10
2018-10-09T20:56:36.868Z,25.10
2018-10-09T20:59:07.096Z,27.83
2018-10-09T21:01:36.459Z,29.13
2018-10-09T21:04:05.899Z,31.70
2018-10-09T21:06:35.511Z,27.97
2018-10-09T21:09:05.524Z,25.73
2018-10-09T21:11:34.867Z,25.67
2018-10-09T21:14:04.523Z,29.10
2018-10-09T21:16:33.925Z,27.50
2018-10-09T21:19:03.532Z,26.83
2018-10-09T21:21:32.898Z,24.60
2018-10-09T21:24:02.159Z,28.40
2018-10-09T21:26:32.386Z,27.43
2018-10-09T21:29:01.715Z,26.03
2018-10-09T21:31:31.260Z,27.57
2018-10-09T21:34:00.766Z,26.90
2018-10-09T21:36:30.097Z,25.47
2018-10-09T21:38:59.568Z,24.67
2018-10-09T21:41:29.176Z,24.63
2018-10-09T21:43:58.640Z,26.13
2018-10-09T21:46:28.079Z,27.20
2018-10-09T21:48:57.481Z,26.47
2018-10-09T21:51:26.884Z,28.20
2018-10-09T21:53:56.099Z,27.53
2018-10-09T21:56:25.442Z,27.30
2018-10-09T21:58:54.885Z,27.57
2018-10-09T22:01:24.223Z,27.93
2018-10-09T22:03:53.555Z,24.87
2018-10-09T22:06:23.033Z,26.03
2018-10-09T22:08:52.496Z,26.80
2018-10-09T22:11:21.893Z,28.83
2018-10-09T22:13:52.337Z,22.93
2018-10-09T22:16:21.720Z,26.60
2018-10-09T22:18:51.122Z,32.37
2018-10-09T22:21:20.395Z,30.03
2018-10-09T22:23:49.670Z,27.07
2018-10-09T22:26:19.138Z,26.27
2018-10-09T22:28:49.551Z,23.43
2018-10-09T22:31:19.070Z,25.27
2018-10-09T22:33:48.449Z,25.17
2018-10-09T22:36:17.970Z,33.83
2018-10-09T22:38:47.259Z,30.37
2018-10-09T22:41:16.604Z,33.43
2018-10-09T22:43:46.142Z,29.80
2018-10-09T22:46:15.778Z,44.07
2018-10-09T22:48:45.181Z,32.90
2018-10-09T22:51:14.542Z,31.73
2018-10-09T22:53:44.266Z,31.30
2018-10-09T22:56:14.410Z,37.13
2018-10-09T22:58:43.812Z,31.33
2018-10-09T23:01:13.315Z,27.90
2018-10-09T23:03:42.658Z,26.63
2018-10-09T23:06:12.120Z,29.63
2018-10-09T23:08:41.435Z,35.43
2018-10-09T23:11:10.924Z,42.57
2018-10-09T23:13:40.428Z,54.97
2018-10-09T23:16:10.029Z,104.73
2018-10-09T23:18:39.295Z,88.23
2018-10-09T23:21:08.638Z,134.37
2018-10-09T23:23:37.897Z,143.27
2018-10-09T23:26:08.252Z,154.07
2018-10-09T23:28:37.706Z,86.23
2018-10-09T23:31:07.148Z,61.03
2018-10-09T23:33:36.636Z,52.07
2018-10-09T23:36:06.266Z,45.10
2018-10-09T23:38:35.752Z,92.33
2018-10-09T23:41:05.903Z,56.07
2018-10-09T23:43:35.352Z,37.23
2018-10-09T23:46:05.105Z,61.87
2018-10-09T23:48:34.417Z,55.33
2018-10-09T23:51:03.807Z,59.30
2018-10-09T23:53:33.290Z,82.10
2018-10-09T23:56:02.674Z,40.57
2018-10-09T23:58:32.113Z,50.80
